Time;durP1;ratioP1;P1;durP2;ratioP2;P2;SDS_P1;SDS_P2;PMS_P1;PMS_P2;Temp;Humidity;BMP_temperature;BMP_pressure;BME280_temperature;BME280_humidity;BME280_pressure;Samples;Min_cycle;Max_cycle;Signal;HPM_P1;HPM_P2
2022/12/09 00:01:57;;;;;;;83.90;29.40;;;2.00;99.90;;;;;;5071318;28;20020;-72
2022/12/09 00:04:23;;;;;;;92.40;28.13;;;2.00;99.90;;;;;;5069757;28;20021;-72
2022/12/09 00:06:49;;;;;;;82.28;27.98;;;2.00;99.90;;;;;;5059052;28;20029;-71
2022/12/09 00:09:15;;;;;;;75.35;30.80;;;2.00;99.90;;;;;;5070931;28;20391;-71
2022/12/09 00:11:42;;;;;;;91.47;30.58;;;2.00;99.90;;;;;;5066950;28;20025;-71
2022/12/09 00:14:08;;;;;;;121.88;30.88;;;2.00;99.90;;;;;;5063172;28;20104;-71
2022/12/09 00:16:34;;;;;;;87.68;31.15;;;2.00;99.90;;;;;;5069887;28;20060;-72
2022/12/09 00:18:59;;;;;;;89.30;29.52;;;2.00;99.90;;;;;;5071845;28;20107;-71
2022/12/09 00:21:28;;;;;;;101.20;28.52;;;2.00;99.90;;;;;;5061689;28;20090;-71
2022/12/09 00:23:55;;;;;;;78.80;28.52;;;2.00;99.90;;;;;;5070467;28;20404;-71
2022/12/09 00:26:22;;;;;;;87.93;28.63;;;2.10;99.90;;;;;;5068413;28;20040;-72
2022/12/09 00:28:49;;;;;;;89.40;28.20;;;2.10;99.90;;;;;;5068944;28;20467;-71
2022/12/09 00:31:18;;;;;;;77.35;28.80;;;2.10;99.90;;;;;;5065480;28;20430;-71
2022/12/09 00:33:43;;;;;;;217.60;30.65;;;2.00;99.90;;;;;;5066324;28;20029;-72
2022/12/09 00:36:13;;;;;;;104.88;29.17;;;2.10;99.90;;;;;;5071907;28;20469;-71
2022/12/09 00:38:39;;;;;;;99.38;26.92;;;2.00;99.90;;;;;;5067360;28;20052;-72
2022/12/09 00:41:05;;;;;;;86.97;27.35;;;2.00;99.90;;;;;;5066503;28;20064;-71
2022/12/09 00:43:31;;;;;;;89.75;26.13;;;2.00;99.90;;;;;;5067697;28;20016;-71
2022/12/09 00:45:57;;;;;;;72.68;26.98;;;2.00;99.90;;;;;;5069334;28;20020;-72
2022/12/09 00:48:23;;;;;;;72.38;27.48;;;2.00;99.90;;;;;;5070158;28;20031;-71
2022/12/09 00:50:48;;;;;;;80.63;28.13;;;2.00;99.90;;;;;;5067395;28;20056;-72
2022/12/09 00:53:14;;;;;;;73.97;26.83;;;2.00;99.90;;;;;;5068602;28;20477;-71
2022/12/09 00:55:40;;;;;;;69.30;27.05;;;2.00;99.90;;;;;;5065558;28;20071;-71
2022/12/09 00:58:06;;;;;;;98.93;26.50;;;2.10;99.90;;;;;;5063674;28;20495;-72
2022/12/09 01:00:32;;;;;;;343.95;30.48;;;2.10;99.90;;;;;;5071064;28;20074;-72
2022/12/09 01:02:57;;;;;;;74.97;25.10;;;2.10;99.90;;;;;;5061926;28;20476;-71
2022/12/09 01:05:23;;;;;;;82.53;24.92;;;2.10;99.90;;;;;;5068809;28;20389;-71
2022/12/09 01:07:49;;;;;;;101.03;25.50;;;2.10;99.90;;;;;;5069016;28;20445;-72
2022/12/09 01:10:15;;;;;;;114.85;24.80;;;2.10;99.90;;;;;;5060522;28;20099;-71
2022/12/09 01:12:41;;;;;;;65.25;24.75;;;2.00;99.90;;;;;;5070546;28;20025;-72
2022/12/09 01:15:08;;;;;;;67.10;24.02;;;2.00;99.90;;;;;;5066078;28;20036;-72
2022/12/09 01:17:38;;;;;;;72.20;25.13;;;2.00;99.90;;;;;;5061414;28;20333;-71
2022/12/09 01:20:07;;;;;;;72.30;24.60;;;2.10;99.90;;;;;;5070255;28;20110;-71
2022/12/09 01:22:33;;;;;;;111.53;25.40;;;2.10;99.90;;;;;;5070818;28;20399;-71
2022/12/09 01:24:58;;;;;;;102.90;24.15;;;2.10;99.90;;;;;;5068235;28;20448;-72
2022/12/09 01:27:24;;;;;;;128.13;24.17;;;2.10;99.90;;;;;;5060021;28;20025;-72
2022/12/09 01:29:49;;;;;;;55.58;21.83;;;2.10;99.90;;;;;;5063777;28;20036;-72
2022/12/09 01:32:15;;;;;;;93.72;23.65;;;2.10;99.90;;;;;;5058592;28;20078;-72
2022/12/09 01:34:41;;;;;;;79.80;22.33;;;2.10;99.90;;;;;;5064169;28;20025;-72
2022/12/09 01:37:07;;;;;;;69.85;21.67;;;2.10;99.90;;;;;;5060542;28;20017;-72
2022/12/09 01:39:32;;;;;;;97.82;22.33;;;2.10;99.90;;;;;;5065345;28;20024;-72
2022/12/09 01:42:01;;;;;;;99.28;22.38;;;2.10;99.90;;;;;;5062946;28;20469;-71
2022/12/09 01:44:27;;;;;;;73.28;20.83;;;2.10;99.90;;;;;;5064195;28;20104;-72
2022/12/09 01:46:55;;;;;;;59.60;21.45;;;2.10;99.90;;;;;;5059131;28;20443;-72
2022/12/09 01:49:41;;;;;;;62.47;21.45;;;2.10;99.90;;;;;;5052331;28;20513;-71
2022/12/09 01:52:15;;;;;;;63.13;20.42;;;2.10;99.90;;;;;;5068156;28;20061;-72
2022/12/09 01:54:44;;;;;;;63.00;19.63;;;2.10;99.90;;;;;;5062660;28;20029;-72
2022/12/09 01:57:10;;;;;;;53.33;18.90;;;2.20;99.90;;;;;;5052747;28;20053;-72
2022/12/09 01:59:37;;;;;;;56.17;19.63;;;2.10;99.90;;;;;;5069303;28;20137;-72
2022/12/09 02:02:04;;;;;;;59.40;19.00;;;2.10;99.90;;;;;;5056848;28;20029;-72
2022/12/09 02:04:40;;;;;;;53.28;18.48;;;2.10;99.90;;;;;;5065308;28;20013;-72
2022/12/09 02:07:09;;;;;;;73.82;21.15;;;2.10;99.90;;;;;;5052385;28;20637;-72
2022/12/09 02:09:35;;;;;;;61.08;21.00;;;2.10;99.90;;;;;;5065232;28;20032;-72
2022/12/09 02:12:14;;;;;;;60.25;20.85;;;2.20;99.90;;;;;;5061128;28;20028;-73
2022/12/09 02:14:53;;;;;;;59.65;20.77;;;2.10;99.90;;;;;;5063989;28;20332;-72
2022/12/09 02:17:41;;;;;;;65.97;21.30;;;2.20;99.90;;;;;;5057024;28;20488;-71
2022/12/09 02:20:18;;;;;;;60.72;21.15;;;2.20;99.90;;;;;;5056457;28;20024;-72
2022/12/09 02:23:10;;;;;;;59.78;21.02;;;2.20;99.90;;;;;;5066330;28;20040;-71
2022/12/09 02:25:55;;;;;;;61.83;22.30;;;2.20;99.90;;;;;;5067082;28;20083;-72
2022/12/09 02:29:02;;;;;;;64.30;22.42;;;2.20;99.90;;;;;;5064773;28;20074;-71
2022/12/09 02:31:55;;;;;;;66.82;21.77;;;2.20;99.90;;;;;;5063575;28;20078;-72
2022/12/09 02:34:25;;;;;;;70.18;22.05;;;2.20;99.90;;;;;;5048569;28;20036;-72
2022/12/09 02:37:11;;;;;;;70.40;24.60;;;2.20;99.90;;;;;;5066067;28;20046;-72
2022/12/09 02:39:52;;;;;;;69.72;23.98;;;2.20;99.90;;;;;;5061218;28;20021;-72
2022/12/09 02:42:21;;;;;;;66.70;24.75;;;2.20;99.90;;;;;;5053028;28;20037;-72
2022/12/09 02:44:49;;;;;;;68.60;25.38;;;2.20;99.90;;;;;;5050627;28;20083;-72
2022/12/09 02:47:19;;;;;;;76.85;26.23;;;2.20;99.90;;;;;;5062094;28;20479;-71
2022/12/09 02:49:49;;;;;;;79.07;26.00;;;2.20;99.90;;;;;;5068801;28;20044;-72
2022/12/09 02:52:16;;;;;;;76.63;26.90;;;2.20;99.90;;;;;;5056302;28;20070;-72
2022/12/09 02:54:43;;;;;;;72.65;27.55;;;2.20;99.90;;;;;;5064163;28;20028;-72
2022/12/09 02:57:22;;;;;;;73.72;26.20;;;2.20;99.90;;;;;;5061807;28;20032;-72
2022/12/09 02:59:47;;;;;;;69.30;24.98;;;2.10;99.90;;;;;;5049177;28;20045;-72
2022/12/09 03:02:28;;;;;;;72.30;24.58;;;2.10;99.90;;;;;;5047892;28;20056;-72
2022/12/09 03:05:19;;;;;;;72.28;25.13;;;2.10;99.90;;;;;;5049304;28;20377;-72
2022/12/09 03:08:00;;;;;;;71.30;25.10;;;2.20;99.90;;;;;;5067363;28;20060;-72
2022/12/09 03:10:41;;;;;;;63.83;24.13;;;2.10;99.90;;;;;;5063267;28;20407;-71
2022/12/09 03:13:16;;;;;;;64.35;23.58;;;2.10;99.90;;;;;;5052595;28;20033;-72
2022/12/09 03:15:49;;;;;;;61.88;22.60;;;2.20;99.90;;;;;;5050635;28;20448;-72
2022/12/09 03:18:18;;;;;;;52.60;20.02;;;2.10;99.90;;;;;;5054884;28;20037;-72
2022/12/09 03:20:46;;;;;;;61.53;22.48;;;2.10;99.90;;;;;;5071830;28;20024;-72
2022/12/09 03:23:14;;;;;;;57.67;21.88;;;2.10;99.90;;;;;;5068474;28;20052;-72
2022/12/09 03:25:44;;;;;;;60.78;21.73;;;2.10;99.90;;;;;;5065320;28;20433;-71
2022/12/09 03:28:21;;;;;;;64.15;22.85;;;2.10;99.90;;;;;;5065660;28;20056;-71
2022/12/09 03:30:48;;;;;;;68.32;23.23;;;2.10;99.90;;;;;;5069501;28;20032;-72
2022/12/09 03:33:16;;;;;;;64.78;23.25;;;2.10;99.90;;;;;;5069541;28;20028;-71
2022/12/09 03:35:48;;;;;;;63.38;23.77;;;2.10;99.90;;;;;;5068354;28;20063;-72
2022/12/09 03:38:17;;;;;;;67.78;23.50;;;2.10;99.90;;;;;;5052436;28;20106;-72
2022/12/09 03:40:45;;;;;;;70.50;23.63;;;2.10;99.90;;;;;;5053959;28;20040;-71
2022/12/09 03:43:27;;;;;;;63.97;23.88;;;2.10;99.90;;;;;;5066230;28;20021;-72
2022/12/09 03:45:54;;;;;;;63.63;23.52;;;2.10;99.90;;;;;;5066576;28;20024;-72
2022/12/09 03:48:21;;;;;;;70.38;24.13;;;2.10;99.90;;;;;;5060645;28;20095;-73
2022/12/09 03:51:13;;;;;;;66.68;22.70;;;2.10;99.90;;;;;;5067216;28;20098;-72
2022/12/09 03:53:59;;;;;;;67.18;23.42;;;2.10;99.90;;;;;;5050488;28;20047;-71
2022/12/09 03:56:28;;;;;;;64.18;21.83;;;2.10;99.90;;;;;;5063516;28;20045;-72
2022/12/09 03:58:57;;;;;;;55.67;20.42;;;2.10;99.90;;;;;;5067133;28;20388;-72
2022/12/09 04:01:25;;;;;;;59.17;20.20;;;2.10;99.90;;;;;;5058748;28;20362;-71
2022/12/09 04:03:54;;;;;;;59.28;21.05;;;2.00;99.90;;;;;;5067523;28;20020;-71
2022/12/09 04:06:19;;;;;;;60.95;20.33;;;2.00;99.90;;;;;;5067997;28;20079;-72
2022/12/09 04:08:45;;;;;;;57.97;20.50;;;2.00;99.90;;;;;;5066449;28;20028;-71
2022/12/09 04:11:11;;;;;;;58.42;20.27;;;2.00;99.90;;;;;;5067902;28;20025;-71
2022/12/09 04:13:36;;;;;;;59.80;21.00;;;2.00;99.90;;;;;;5070051;28;20040;-71
2022/12/09 04:16:02;;;;;;;60.15;21.25;;;2.00;99.90;;;;;;5070191;28;20492;-72
2022/12/09 04:18:28;;;;;;;60.22;20.73;;;2.10;99.90;;;;;;5070638;28;20031;-71
2022/12/09 04:20:54;;;;;;;60.60;21.17;;;2.00;99.90;;;;;;5065800;28;20062;-72
2022/12/09 04:23:19;;;;;;;57.72;21.00;;;2.00;99.90;;;;;;5071965;28;20021;-71
2022/12/09 04:25:45;;;;;;;65.68;21.85;;;2.10;99.90;;;;;;5069096;28;20025;-72
2022/12/09 04:28:10;;;;;;;59.70;20.38;;;2.00;99.90;;;;;;5063989;28;20079;-71
2022/12/09 04:30:36;;;;;;;65.05;21.10;;;2.10;99.90;;;;;;5069936;28;20132;-71
2022/12/09 04:33:02;;;;;;;56.42;19.45;;;2.10;99.90;;;;;;5064246;28;20029;-71
2022/12/09 04:35:27;;;;;;;52.35;18.45;;;2.10;99.90;;;;;;5057845;28;20021;-72
2022/12/09 04:37:53;;;;;;;57.22;18.60;;;2.10;99.90;;;;;;5066188;28;20512;-72
2022/12/09 04:40:19;;;;;;;57.88;19.77;;;2.00;99.90;;;;;;5064845;28;20126;-72
2022/12/09 04:42:45;;;;;;;66.32;21.27;;;2.00;99.90;;;;;;5068780;28;20047;-73
2022/12/09 04:45:11;;;;;;;58.80;20.27;;;2.10;99.90;;;;;;5057233;28;20023;-72
2022/12/09 04:47:37;;;;;;;58.70;19.55;;;2.00;99.90;;;;;;5051435;28;20033;-71
2022/12/09 04:50:03;;;;;;;60.90;20.02;;;2.10;99.90;;;;;;5051143;28;20132;-72
2022/12/09 04:52:29;;;;;;;62.40;20.40;;;2.10;99.90;;;;;;5051410;28;20029;-71
2022/12/09 04:54:55;;;;;;;63.60;20.52;;;2.10;99.90;;;;;;5050636;28;20385;-72
2022/12/09 04:57:21;;;;;;;63.17;21.38;;;2.00;99.90;;;;;;5068930;28;20017;-72
2022/12/09 04:59:46;;;;;;;66.15;20.73;;;2.00;99.90;;;;;;5071776;28;20037;-71
2022/12/09 05:02:12;;;;;;;65.10;21.17;;;2.00;99.90;;;;;;5053235;28;20112;-72
2022/12/09 05:04:38;;;;;;;68.30;22.80;;;2.00;99.90;;;;;;5057119;28;20025;-71
2022/12/09 05:07:03;;;;;;;65.10;21.42;;;2.00;99.90;;;;;;5057502;28;20025;-72
2022/12/09 05:09:29;;;;;;;66.53;21.63;;;2.00;99.90;;;;;;5065470;28;20024;-72
2022/12/09 05:11:58;;;;;;;64.28;22.45;;;2.00;99.90;;;;;;5069072;28;20033;-72
2022/12/09 05:14:23;;;;;;;65.78;20.83;;;2.00;99.90;;;;;;5070346;28;20021;-72
2022/12/09 05:16:49;;;;;;;68.65;21.50;;;2.00;99.90;;;;;;5055546;28;20031;-71
2022/12/09 05:19:14;;;;;;;64.97;22.05;;;2.00;99.90;;;;;;5069409;28;20099;-72
2022/12/09 05:21:42;;;;;;;70.07;22.42;;;2.00;99.90;;;;;;5070121;28;20085;-71
2022/12/09 05:24:08;;;;;;;67.47;21.55;;;2.00;99.90;;;;;;5071500;28;20029;-72
2022/12/09 05:26:34;;;;;;;65.32;22.15;;;2.00;99.90;;;;;;5067470;28;20580;-72
2022/12/09 05:28:59;;;;;;;68.05;23.50;;;1.90;99.90;;;;;;5065381;28;20032;-72
2022/12/09 05:31:25;;;;;;;68.80;23.08;;;1.90;99.90;;;;;;5069087;28;20040;-72
2022/12/09 05:33:51;;;;;;;65.72;22.48;;;1.90;99.90;;;;;;5070451;28;20028;-72
2022/12/09 05:36:19;;;;;;;59.78;21.40;;;1.90;99.90;;;;;;5056269;28;20043;-71
2022/12/09 05:38:45;;;;;;;62.50;21.40;;;1.90;99.90;;;;;;5064750;28;20017;-72
2022/12/09 05:41:11;;;;;;;55.45;19.83;;;1.90;99.90;;;;;;5062605;28;20027;-72
2022/12/09 05:43:38;;;;;;;58.58;20.58;;;1.90;99.90;;;;;;5065251;28;20013;-72
2022/12/09 05:46:05;;;;;;;55.70;20.45;;;1.80;99.90;;;;;;5058423;28;20458;-72
2022/12/09 05:48:31;;;;;;;56.17;20.50;;;1.80;99.90;;;;;;5059058;28;20029;-72
2022/12/09 05:51:04;;;;;;;57.92;20.77;;;1.80;99.90;;;;;;5057471;28;20114;-71
2022/12/09 05:53:30;;;;;;;61.30;22.13;;;1.80;99.90;;;;;;5058595;28;20056;-72
2022/12/09 05:55:56;;;;;;;60.20;22.88;;;1.80;99.90;;;;;;5060148;28;20051;-72
2022/12/09 05:58:22;;;;;;;59.75;22.52;;;1.80;99.90;;;;;;5064307;28;20024;-72
2022/12/09 06:00:48;;;;;;;61.58;22.02;;;1.80;99.90;;;;;;5066692;28;20074;-72
2022/12/09 06:03:14;;;;;;;61.92;23.02;;;1.80;99.90;;;;;;5068444;28;20027;-72
2022/12/09 06:05:39;;;;;;;65.72;23.88;;;1.90;99.90;;;;;;5068573;28;20331;-72
2022/12/09 06:08:05;;;;;;;62.67;23.50;;;1.80;99.90;;;;;;5062474;28;20031;-72
2022/12/09 06:10:31;;;;;;;59.83;23.23;;;1.80;99.90;;;;;;5059892;28;20645;-72
2022/12/09 06:12:56;;;;;;;61.53;22.45;;;1.80;99.90;;;;;;5060545;28;20013;-72
2022/12/09 06:15:23;;;;;;;56.80;22.92;;;1.80;99.90;;;;;;5060499;28;20898;-72
2022/12/09 06:17:49;;;;;;;59.90;22.35;;;1.70;99.90;;;;;;5056481;28;20032;-72
2022/12/09 06:20:15;;;;;;;64.88;23.88;;;1.80;99.90;;;;;;5061094;28;20036;-72
2022/12/09 06:22:41;;;;;;;58.00;21.95;;;1.80;99.90;;;;;;5066568;28;20382;-73
2022/12/09 06:25:07;;;;;;;60.03;22.67;;;1.80;99.90;;;;;;5064654;28;20023;-72
2022/12/09 06:27:33;;;;;;;59.38;23.35;;;1.70;99.90;;;;;;5071077;28;20028;-72
2022/12/09 06:29:58;;;;;;;57.92;22.27;;;1.80;99.90;;;;;;5068945;28;20024;-72
2022/12/09 06:32:24;;;;;;;56.97;22.98;;;1.80;99.90;;;;;;5068831;28;20032;-72
2022/12/09 06:34:50;;;;;;;59.53;23.85;;;1.80;99.90;;;;;;5060789;28;20384;-72
2022/12/09 06:37:16;;;;;;;66.50;23.27;;;1.70;99.90;;;;;;5059656;28;20029;-71
2022/12/09 06:39:41;;;;;;;60.45;22.13;;;1.70;99.90;;;;;;5054215;28;20029;-72
2022/12/09 06:42:07;;;;;;;65.78;24.15;;;1.70;99.90;;;;;;5057344;28;20023;-72
2022/12/09 06:44:33;;;;;;;61.03;23.48;;;1.70;99.90;;;;;;5055863;28;20108;-72
2022/12/09 06:46:58;;;;;;;58.72;22.70;;;1.70;99.90;;;;;;5052224;28;20104;-70
2022/12/09 06:49:24;;;;;;;69.63;24.38;;;1.70;99.90;;;;;;5056005;28;20055;-71
2022/12/09 06:51:50;;;;;;;60.65;22.95;;;1.60;99.90;;;;;;5061740;28;20032;-70
2022/12/09 06:54:15;;;;;;;59.85;23.17;;;1.70;99.90;;;;;;5061344;28;20013;-71
2022/12/09 06:56:41;;;;;;;57.97;22.40;;;1.60;99.90;;;;;;5062595;28;20017;-70
2022/12/09 06:59:08;;;;;;;60.28;23.30;;;1.70;99.90;;;;;;5071020;28;20024;-71
2022/12/09 07:01:35;;;;;;;62.05;24.00;;;1.70;99.90;;;;;;5070161;28;20047;-70
2022/12/09 07:04:03;;;;;;;59.25;23.05;;;1.60;99.90;;;;;;5069787;28;22517;-70
2022/12/09 07:06:35;;;;;;;67.43;25.05;;;1.60;99.90;;;;;;5071956;28;20483;-70
2022/12/09 07:09:07;;;;;;;63.03;23.70;;;1.70;99.90;;;;;;5073019;28;20449;-70
2022/12/09 07:11:33;;;;;;;62.45;23.95;;;1.70;99.90;;;;;;5055512;28;20151;-71
2022/12/09 07:13:59;;;;;;;63.35;23.88;;;1.70;99.90;;;;;;5067272;28;20023;-70
2022/12/09 07:16:25;;;;;;;65.10;24.88;;;1.70;99.90;;;;;;5063224;28;20044;-70
2022/12/09 07:18:51;;;;;;;69.68;24.92;;;1.70;99.90;;;;;;5059880;28;20029;-70
2022/12/09 07:21:18;;;;;;;65.15;25.10;;;1.70;99.90;;;;;;5064045;28;20016;-70
2022/12/09 07:23:44;;;;;;;67.97;24.67;;;1.60;99.90;;;;;;5057671;28;20070;-70
2022/12/09 07:26:10;;;;;;;65.63;24.40;;;1.60;99.90;;;;;;5060902;28;20449;-71
2022/12/09 07:28:38;;;;;;;74.85;26.52;;;1.60;99.90;;;;;;5068022;28;20033;-70
2022/12/09 07:31:04;;;;;;;75.78;25.13;;;1.60;99.90;;;;;;5066317;28;20098;-70
2022/12/09 07:33:30;;;;;;;73.75;26.27;;;1.60;99.90;;;;;;5088426;28;20128;-70
2022/12/09 07:35:57;;;;;;;77.47;27.77;;;1.60;99.90;;;;;;5067052;28;20138;-69
2022/12/09 07:38:24;;;;;;;78.43;26.63;;;1.60;99.90;;;;;;5063438;28;20469;-70
2022/12/09 07:40:50;;;;;;;72.38;26.13;;;1.60;99.90;;;;;;5068173;28;20039;-71
2022/12/09 07:43:16;;;;;;;77.97;26.90;;;1.50;99.90;;;;;;5058692;28;20473;-70
2022/12/09 07:45:41;;;;;;;83.88;28.35;;;1.50;99.90;;;;;;5067426;28;20048;-70
2022/12/09 07:48:08;;;;;;;76.80;26.15;;;1.50;99.90;;;;;;5061130;28;20025;-70
2022/12/09 07:50:34;;;;;;;76.85;27.17;;;1.50;99.90;;;;;;5069398;28;20270;-70
2022/12/09 07:53:00;;;;;;;76.25;27.80;;;1.50;99.90;;;;;;5059387;28;20380;-70
2022/12/09 07:55:25;;;;;;;77.05;28.75;;;1.50;99.90;;;;;;5066555;28;20074;-70
2022/12/09 07:57:51;;;;;;;75.90;26.95;;;1.50;99.90;;;;;;5067414;28;20020;-70
2022/12/09 08:00:17;;;;;;;77.88;27.23;;;1.50;99.90;;;;;;5051896;28;20067;-70
2022/12/09 08:02:43;;;;;;;74.40;26.77;;;1.50;99.90;;;;;;5070087;28;20414;-70
2022/12/09 08:05:09;;;;;;;80.80;28.13;;;1.50;99.90;;;;;;5069484;28;20028;-70
2022/12/09 08:07:34;;;;;;;81.20;27.58;;;1.50;99.90;;;;;;5062967;28;20024;-70
2022/12/09 08:10:00;;;;;;;74.22;27.77;;;1.50;99.90;;;;;;5058312;28;20033;-71
2022/12/09 08:12:26;;;;;;;73.35;26.77;;;1.50;99.90;;;;;;5066580;28;20391;-71
2022/12/09 08:14:51;;;;;;;73.18;25.90;;;1.50;99.90;;;;;;5064120;28;20592;-70
2022/12/09 08:17:17;;;;;;;70.45;25.92;;;1.50;99.90;;;;;;5070689;28;20042;-70
2022/12/09 08:19:43;;;;;;;73.90;25.63;;;1.50;99.90;;;;;;5062369;28;20098;-70
2022/12/09 08:22:08;;;;;;;72.30;25.75;;;1.50;99.90;;;;;;5064092;28;20478;-70
2022/12/09 08:24:34;;;;;;;69.65;25.73;;;1.50;99.90;;;;;;5069748;28;20391;-70
2022/12/09 08:27:00;;;;;;;75.30;26.85;;;1.50;99.90;;;;;;5070439;28;20021;-69
2022/12/09 08:29:26;;;;;;;73.10;26.35;;;1.50;99.90;;;;;;5071988;28;20487;-69
2022/12/09 08:31:52;;;;;;;74.55;26.45;;;1.50;99.90;;;;;;5071278;28;20407;-70
2022/12/09 08:34:17;;;;;;;73.40;25.92;;;1.50;99.90;;;;;;5072424;28;20095;-69
2022/12/09 08:36:43;;;;;;;72.07;27.10;;;1.50;99.90;;;;;;5065211;28;20036;-70
2022/12/09 08:39:13;;;;;;;71.93;26.58;;;1.50;99.90;;;;;;5058284;28;20082;-70
2022/12/09 08:41:38;;;;;;;74.45;25.88;;;1.50;99.90;;;;;;5069186;28;20348;-70
2022/12/09 08:44:14;;;;;;;80.28;27.08;;;1.50;99.90;;;;;;5062474;28;20028;-70
2022/12/09 08:46:42;;;;;;;76.22;25.80;;;1.50;99.90;;;;;;5072847;28;20053;-70
2022/12/09 08:49:08;;;;;;;76.85;26.27;;;1.50;99.90;;;;;;5067060;28;20045;-69
2022/12/09 08:51:34;;;;;;;75.05;27.10;;;1.50;99.90;;;;;;5049651;28;20051;-70
2022/12/09 08:54:00;;;;;;;75.22;26.92;;;1.50;99.90;;;;;;5067438;28;20092;-70
2022/12/09 08:56:26;;;;;;;76.03;26.38;;;1.50;99.90;;;;;;5070878;28;20024;-71
2022/12/09 08:58:52;;;;;;;77.63;27.25;;;1.50;99.90;;;;;;5066549;28;20024;-71
2022/12/09 09:01:21;;;;;;;73.47;25.83;;;1.50;99.90;;;;;;5058081;28;20354;-70
2022/12/09 09:03:47;;;;;;;84.97;28.33;;;1.50;99.90;;;;;;5069209;28;20024;-71
2022/12/09 09:06:14;;;;;;;80.75;27.90;;;1.60;99.90;;;;;;5063942;28;20120;-70
2022/12/09 09:08:39;;;;;;;81.30;28.77;;;1.60;99.90;;;;;;5048992;28;20079;-71
2022/12/09 09:11:10;;;;;;;83.10;29.13;;;1.60;99.90;;;;;;5057558;28;20024;-71
2022/12/09 09:13:38;;;;;;;80.40;29.35;;;1.60;99.90;;;;;;5067042;28;20020;-70
2022/12/09 09:16:07;;;;;;;81.72;29.15;;;1.70;99.90;;;;;;5068501;28;20116;-73
2022/12/09 09:18:33;;;;;;;96.75;31.65;;;1.70;99.90;;;;;;5062954;28;20068;-75
2022/12/09 09:20:58;;;;;;;86.32;30.38;;;1.70;99.90;;;;;;5070982;28;20067;-78
2022/12/09 09:23:25;;;;;;;89.45;31.60;;;1.80;99.90;;;;;;5068991;28;20024;-71
2022/12/09 09:26:12;;;;;;;86.82;30.95;;;1.80;99.90;;;;;;5077207;28;20390;-71
2022/12/09 09:28:38;;;;;;;79.45;29.17;;;1.80;99.90;;;;;;5070093;28;20480;-71
2022/12/09 09:31:07;;;;;;;82.30;31.15;;;1.90;99.90;;;;;;5063080;28;20444;-72
2022/12/09 09:33:33;;;;;;;85.32;31.50;;;1.80;99.90;;;;;;5058913;28;20072;-71
2022/12/09 09:36:01;;;;;;;83.32;29.77;;;1.90;99.90;;;;;;5068460;28;20034;-71
2022/12/09 09:38:27;;;;;;;83.28;30.02;;;1.90;99.90;;;;;;5064218;28;20451;-71
2022/12/09 09:40:54;;;;;;;79.60;30.85;;;1.90;99.90;;;;;;5070513;28;20070;-72
2022/12/09 09:43:24;;;;;;;85.53;30.98;;;1.80;99.90;;;;;;5065224;28;20395;-71
2022/12/09 09:45:53;;;;;;;83.10;30.65;;;1.90;99.90;;;;;;5061122;28;20485;-71
2022/12/09 09:48:22;;;;;;;89.53;32.95;;;1.90;99.90;;;;;;5059802;28;20075;-72
2022/12/09 09:50:58;;;;;;;84.40;32.65;;;1.90;99.90;;;;;;5071930;28;20481;-72
2022/12/09 09:53:25;;;;;;;86.85;32.20;;;2.00;99.90;;;;;;5063700;28;20060;-71
2022/12/09 09:56:05;;;;;;;86.30;31.85;;;2.00;99.90;;;;;;5048144;28;20017;-71
2022/12/09 09:58:40;;;;;;;84.18;32.30;;;2.10;99.90;;;;;;5062168;28;20380;-72
2022/12/09 10:01:10;;;;;;;;;;;2.20;99.90;;;;;;5062511;28;20024;-71
2022/12/09 10:03:54;;;;;;;87.85;33.85;;;2.20;99.90;;;;;;5062590;28;20016;-71
2022/12/09 10:06:56;;;;;;;83.68;32.00;;;2.20;99.90;;;;;;5051119;28;20439;-71
2022/12/09 10:09:35;;;;;;;84.88;32.28;;;2.30;99.90;;;;;;5053712;28;20028;-71
2022/12/09 10:12:33;;;;;;;84.97;32.55;;;2.30;99.90;;;;;;5068216;28;20061;-71
2022/12/09 10:15:19;;;;;;;78.85;31.17;;;2.30;99.90;;;;;;5068240;28;20524;-71
2022/12/09 10:18:10;;;;;;;83.93;31.58;;;2.30;99.90;;;;;;5069919;28;20025;-71
2022/12/09 10:20:36;;;;;;;83.07;31.73;;;2.30;99.90;;;;;;5068355;28;20052;-71
2022/12/09 10:23:10;;;;;;;93.25;34.78;;;2.30;99.90;;;;;;5067944;28;20069;-72
2022/12/09 10:25:42;;;;;;;85.32;34.15;;;2.30;99.90;;;;;;5066995;28;20063;-71
2022/12/09 10:28:20;;;;;;;86.82;34.10;;;2.30;99.90;;;;;;5058334;28;20017;-71
2022/12/09 10:30:46;;;;;;;90.82;34.75;;;2.40;99.90;;;;;;5067877;28;20451;-71
2022/12/09 10:33:13;;;;;;;94.07;37.13;;;2.40;99.90;;;;;;5067992;28;20024;-71
2022/12/09 10:35:39;;;;;;;87.50;35.35;;;2.50;99.90;;;;;;5058563;28;20021;-71
2022/12/09 10:38:11;;;;;;;88.97;35.65;;;2.50;99.90;;;;;;5047615;28;20500;-71
2022/12/09 10:40:45;;;;;;;90.88;36.40;;;2.50;99.90;;;;;;5066195;28;20028;-71
2022/12/09 10:43:35;;;;;;;88.28;36.30;;;2.60;99.90;;;;;;5071829;28;20411;-71
2022/12/09 10:46:05;;;;;;;85.47;35.03;;;2.60;99.90;;;;;;5076201;28;20020;-71
2022/12/09 10:48:34;;;;;;;90.00;35.25;;;2.60;99.90;;;;;;5075337;28;20500;-72
2022/12/09 10:51:14;;;;;;;92.70;36.47;;;2.60;99.90;;;;;;5053957;28;20397;-72
2022/12/09 10:53:56;;;;;;;92.50;36.38;;;2.60;99.90;;;;;;5068157;28;20104;-71
2022/12/09 10:56:28;;;;;;;94.63;36.67;;;2.60;99.90;;;;;;5060001;28;20024;-71
2022/12/09 10:59:17;;;;;;;93.70;36.70;;;2.60;99.90;;;;;;5064215;28;20064;-71
2022/12/09 11:01:54;;;;;;;94.32;37.97;;;2.60;99.90;;;;;;5071834;28;20062;-71
2022/12/09 11:04:28;;;;;;;97.05;36.70;;;2.70;99.90;;;;;;5067541;28;20481;-71
2022/12/09 11:06:57;;;;;;;95.03;38.67;;;2.70;99.90;;;;;;5060557;28;20043;-71
2022/12/09 11:09:27;;;;;;;94.65;38.20;;;2.80;99.90;;;;;;5067591;28;20375;-72
2022/12/09 11:11:53;;;;;;;92.22;37.33;;;2.80;99.90;;;;;;5068777;28;20543;-71
2022/12/09 11:14:30;;;;;;;100.78;39.10;;;2.80;99.90;;;;;;5062726;28;20099;-72
2022/12/09 11:17:29;;;;;;;101.70;38.53;;;2.90;99.90;;;;;;5063995;28;20021;-71
2022/12/09 11:20:06;;;;;;;102.43;42.08;;;2.90;99.90;;;;;;5061855;28;20059;-71
2022/12/09 11:22:37;;;;;;;100.68;38.38;;;2.90;99.90;;;;;;5062862;28;20036;-71
2022/12/09 11:25:26;;;;;;;93.43;38.70;;;2.90;99.90;;;;;;5061574;28;20028;-72
2022/12/09 11:27:58;;;;;;;97.63;38.38;;;2.90;99.90;;;;;;5069154;28;20017;-71
2022/12/09 11:30:25;;;;;;;97.97;39.40;;;2.90;99.90;;;;;;5067453;28;20025;-71
2022/12/09 11:33:12;;;;;;;95.18;40.10;;;2.90;99.90;;;;;;5067427;28;20012;-71
2022/12/09 11:35:44;;;;;;;95.78;39.67;;;3.00;99.90;;;;;;5058435;28;20380;-71
2022/12/09 11:38:38;;;;;;;95.38;40.53;;;3.00;99.90;;;;;;5066842;28;20028;-71
2022/12/09 11:41:10;;;;;;;99.88;41.30;;;3.10;99.90;;;;;;5071501;28;20032;-71
2022/12/09 11:43:38;;;;;;;100.75;40.22;;;3.20;99.90;;;;;;5070941;28;20029;-71
2022/12/09 11:46:16;;;;;;;97.15;39.85;;;3.20;99.90;;;;;;5079575;28;20016;-71
2022/12/09 11:48:47;;;;;;;103.18;39.63;;;3.20;99.90;;;;;;5074162;28;20025;-71
2022/12/09 11:51:21;;;;;;;100.78;40.13;;;3.20;99.90;;;;;;5057965;28;20027;-72
2022/12/09 11:53:47;;;;;;;99.22;40.63;;;3.30;99.90;;;;;;5052797;28;20032;-71
2022/12/09 11:56:24;;;;;;;92.75;40.20;;;3.40;99.90;;;;;;5060972;28;20074;-71
2022/12/09 11:59:07;;;;;;;93.85;40.45;;;3.50;99.90;;;;;;5056751;28;20429;-72
2022/12/09 12:01:39;;;;;;;93.38;40.17;;;3.60;99.90;;;;;;5071148;28;20029;-71
2022/12/09 12:04:08;;;;;;;93.32;40.55;;;3.70;99.90;;;;;;5057573;28;20020;-71
2022/12/09 12:06:51;;;;;;;90.97;40.33;;;3.80;99.90;;;;;;5071520;28;20029;-71
2022/12/09 12:09:25;;;;;;;85.90;38.53;;;3.90;99.90;;;;;;5070221;28;20035;-71
2022/12/09 12:12:12;;;;;;;91.50;39.70;;;4.00;99.90;;;;;;5056548;28;20051;-70
2022/12/09 12:14:41;;;;;;;90.18;39.47;;;4.00;99.90;;;;;;5059394;28;20021;-71
2022/12/09 12:17:23;;;;;;;86.57;38.92;;;4.10;99.90;;;;;;5069671;28;20021;-71
2022/12/09 12:19:51;;;;;;;86.07;38.35;;;4.10;99.90;;;;;;5069748;28;20033;-71
2022/12/09 12:22:45;;;;;;;87.10;36.75;;;4.10;99.90;;;;;;5069893;28;20020;-71
2022/12/09 12:25:35;;;;;;;84.88;36.75;;;4.10;99.90;;;;;;5071294;28;20038;-71
2022/12/09 12:28:27;;;;;;;83.20;36.90;;;4.10;99.90;;;;;;5073577;28;20056;-71
2022/12/09 12:31:23;;;;;;;82.40;36.90;;;4.20;99.90;;;;;;5063469;28;20032;-71
2022/12/09 12:34:23;;;;;;;87.47;38.13;;;4.10;99.90;;;;;;5059764;28;20032;-71
2022/12/09 12:37:26;;;;;;;82.68;35.90;;;4.10;99.90;;;;;;5070049;28;20025;-72
2022/12/09 12:40:49;;;;;;;78.80;35.75;;;4.10;99.90;;;;;;5064108;28;20025;-72
2022/12/09 12:46:21;;;;;;;84.20;37.05;;;4.10;99.90;;;;;;5060980;28;20032;-73
2022/12/09 12:49:07;;;;;;;87.47;38.05;;;4.10;99.90;;;;;;5064156;28;20020;-72
2022/12/09 12:51:47;;;;;;;87.68;38.22;;;4.10;99.90;;;;;;5070658;28;20108;-72
2022/12/09 12:54:25;;;;;;;85.72;37.45;;;4.10;99.90;;;;;;5068616;28;20431;-76
2022/12/09 12:57:09;;;;;;;82.60;36.38;;;4.00;99.90;;;;;;5067200;28;20457;-73